createdAt,value
2023-03-10T00:01:01.690Z,0.10
2023-03-10T00:03:28.387Z,1.10
2023-03-10T00:05:55.135Z,0.73
2023-03-10T00:08:21.841Z,0.10
2023-03-10T00:10:48.530Z,0.20
2023-03-10T00:13:15.233Z,0.52
2023-03-10T00:15:41.973Z,1.30
2023-03-10T00:18:09.125Z,0.82
2023-03-10T00:20:35.833Z,0.20
2023-03-10T00:23:02.525Z,0.40
2023-03-10T00:25:29.218Z,0.20
2023-03-10T00:27:55.909Z,0.10
2023-03-10T00:30:22.643Z,0.65
2023-03-10T00:32:49.366Z,0.57
2023-03-10T00:35:16.276Z,1.10
2023-03-10T00:37:42.979Z,0.20
2023-03-10T00:40:10.291Z,0.82
2023-03-10T00:42:37.000Z,0.10
2023-03-10T00:45:04.001Z,0.10
2023-03-10T00:47:30.734Z,1.42
2023-03-10T00:49:57.424Z,0.90
2023-03-10T00:52:24.195Z,0.43
2023-03-10T00:54:50.880Z,0.20
2023-03-10T00:57:17.973Z,1.08
2023-03-10T00:59:50.427Z,0.30
2023-03-10T01:02:18.896Z,0.10
2023-03-10T01:04:45.953Z,1.08
2023-03-10T01:07:12.826Z,0.30
2023-03-10T01:09:39.560Z,0.32
2023-03-10T01:12:06.636Z,1.00
2023-03-10T01:14:33.335Z,0.95
2023-03-10T01:17:00.110Z,1.50
2023-03-10T01:19:26.783Z,0.85
2023-03-10T01:21:53.463Z,0.55
2023-03-10T01:24:20.251Z,0.20
2023-03-10T01:26:47.044Z,0.10
2023-03-10T01:29:13.833Z,0.50
2023-03-10T01:31:40.645Z,0.75
2023-03-10T01:34:07.403Z,0.10
2023-03-10T01:36:34.098Z,0.43
2023-03-10T01:39:00.741Z,1.95
2023-03-10T01:41:27.456Z,0.25
2023-03-10T01:43:55.263Z,0.10
2023-03-10T01:46:27.767Z,0.68
2023-03-10T01:48:55.805Z,0.10
2023-03-10T01:51:22.850Z,0.52
2023-03-10T01:53:49.572Z,0.73
2023-03-10T01:56:16.279Z,0.00
2023-03-10T01:58:44.090Z,0.30
2023-03-10T02:01:11.314Z,0.75
2023-03-10T02:03:42.052Z,1.08
2023-03-10T02:06:10.316Z,0.17
2023-03-10T02:08:44.436Z,0.98
2023-03-10T02:11:11.656Z,0.00
2023-03-10T02:13:38.351Z,0.95
2023-03-10T02:16:05.557Z,0.90
2023-03-10T02:18:32.314Z,0.10
2023-03-10T02:21:01.992Z,0.47
2023-03-10T02:23:51.388Z,0.75
2023-03-10T02:27:01.986Z,1.00
2023-03-10T02:29:58.016Z,0.00
2023-03-10T02:32:25.539Z,0.63
2023-03-10T02:34:52.338Z,0.88
2023-03-10T02:37:23.847Z,0.10
2023-03-10T02:39:50.528Z,0.43
2023-03-10T02:42:18.128Z,0.25
2023-03-10T02:44:45.005Z,0.00
2023-03-10T02:47:11.749Z,1.35
2023-03-10T02:49:38.483Z,0.00
2023-03-10T02:52:07.038Z,0.10
2023-03-10T02:54:33.717Z,0.10
2023-03-10T02:57:00.403Z,0.63
2023-03-10T02:59:27.090Z,1.02
2023-03-10T03:01:53.809Z,0.08
2023-03-10T03:04:20.604Z,0.17
2023-03-10T03:06:47.914Z,1.40
2023-03-10T03:09:14.625Z,0.43
2023-03-10T03:11:41.319Z,0.20
2023-03-10T03:14:08.017Z,0.45
2023-03-10T03:16:34.751Z,1.98
2023-03-10T03:19:01.455Z,0.50
2023-03-10T03:21:28.209Z,0.25
2023-03-10T03:23:54.854Z,0.10
2023-03-10T03:26:23.160Z,0.10
2023-03-10T03:28:50.000Z,0.00
2023-03-10T03:31:22.191Z,0.35
2023-03-10T03:33:48.966Z,0.10
2023-03-10T03:36:16.336Z,0.30
2023-03-10T03:38:43.073Z,0.68
2023-03-10T03:41:09.875Z,0.22
2023-03-10T03:43:36.567Z,1.48
2023-03-10T03:46:03.319Z,0.45
2023-03-10T03:48:30.105Z,0.10
2023-03-10T03:50:56.783Z,0.10
2023-03-10T03:53:23.504Z,0.13
2023-03-10T03:55:50.587Z,0.68
2023-03-10T03:58:17.476Z,0.20
2023-03-10T04:00:44.218Z,0.20
2023-03-10T04:03:10.964Z,1.27
2023-03-10T04:05:37.890Z,0.10
2023-03-10T04:08:04.777Z,0.28
2023-03-10T04:10:31.501Z,0.88
2023-03-10T04:12:58.186Z,0.73
2023-03-10T04:15:24.902Z,1.23
2023-03-10T04:17:51.614Z,1.13
2023-03-10T04:20:18.375Z,0.70
2023-03-10T04:22:45.082Z,1.90
2023-03-10T04:25:11.859Z,1.52
2023-03-10T04:27:38.591Z,1.27
2023-03-10T04:30:05.794Z,0.77
2023-03-10T04:32:32.607Z,1.25
2023-03-10T04:34:59.435Z,0.30
2023-03-10T04:37:26.143Z,0.30
2023-03-10T04:39:52.812Z,0.90
2023-03-10T04:42:19.500Z,0.65
2023-03-10T04:44:46.207Z,0.50
2023-03-10T04:47:12.908Z,0.70
2023-03-10T04:49:39.568Z,1.20
2023-03-10T04:52:06.484Z,2.38
2023-03-10T04:54:33.189Z,1.95
2023-03-10T04:56:59.898Z,0.70
2023-03-10T04:59:26.612Z,1.52
2023-03-10T05:01:53.365Z,0.90
2023-03-10T05:04:20.179Z,1.05
2023-03-10T05:06:50.434Z,1.52
2023-03-10T05:09:17.185Z,0.85
2023-03-10T05:11:43.931Z,0.95
2023-03-10T05:14:12.086Z,1.13
2023-03-10T05:16:38.835Z,2.72
2023-03-10T05:19:05.602Z,3.38
2023-03-10T05:21:32.421Z,3.30
2023-03-10T05:23:59.191Z,5.60
2023-03-10T05:26:25.956Z,3.47
2023-03-10T05:28:52.652Z,3.13
2023-03-10T05:31:19.437Z,4.07
2023-03-10T05:33:46.154Z,4.55
2023-03-10T05:36:13.241Z,5.97
2023-03-10T05:38:40.028Z,2.75
2023-03-10T05:41:08.156Z,2.75
2023-03-10T05:43:34.949Z,3.00
2023-03-10T05:46:01.671Z,2.75
2023-03-10T05:48:28.381Z,2.65
2023-03-10T05:51:05.691Z,3.17
2023-03-10T05:53:32.642Z,1.67
2023-03-10T05:55:59.386Z,3.58
2023-03-10T05:58:26.502Z,1.83
2023-03-10T06:00:53.230Z,1.70
2023-03-10T06:03:20.042Z,1.85
2023-03-10T06:05:46.760Z,1.48
2023-03-10T06:08:13.435Z,1.52
2023-03-10T06:10:40.119Z,1.23
2023-03-10T06:13:06.864Z,3.20
2023-03-10T06:15:33.562Z,1.75
2023-03-10T06:18:00.324Z,1.20
2023-03-10T06:20:27.081Z,2.15
2023-03-10T06:22:53.804Z,0.73
2023-03-10T06:25:20.637Z,0.60
2023-03-10T06:27:47.485Z,1.58
2023-03-10T06:30:14.695Z,1.70
2023-03-10T06:32:41.581Z,1.85
2023-03-10T06:35:08.552Z,1.23
2023-03-10T06:37:35.280Z,1.27
2023-03-10T06:40:01.974Z,1.55
2023-03-10T06:42:28.754Z,1.23
2023-03-10T06:44:55.562Z,1.77
2023-03-10T06:47:22.271Z,1.13
2023-03-10T06:49:48.992Z,0.60
2023-03-10T06:52:15.725Z,0.40
2023-03-10T06:54:42.426Z,0.60
2023-03-10T06:57:09.118Z,0.38
2023-03-10T06:59:35.793Z,1.60
2023-03-10T07:02:02.479Z,0.73
2023-03-10T07:04:29.174Z,1.58
2023-03-10T07:06:55.895Z,0.88
2023-03-10T07:09:22.629Z,1.40
2023-03-10T07:11:49.342Z,0.90
2023-03-10T07:14:16.042Z,2.17
2023-03-10T07:16:42.804Z,0.75
2023-03-10T07:19:09.494Z,0.20
2023-03-10T07:21:36.208Z,1.05
2023-03-10T07:24:02.916Z,0.20
2023-03-10T07:26:29.893Z,2.42
2023-03-10T07:28:56.662Z,3.63
2023-03-10T07:31:23.400Z,2.90
2023-03-10T07:33:50.106Z,1.02
2023-03-10T07:36:17.892Z,0.40
2023-03-10T07:38:44.861Z,1.35
2023-03-10T07:41:14.043Z,1.65
2023-03-10T07:43:40.732Z,1.65
2023-03-10T07:46:12.039Z,0.95
2023-03-10T07:48:38.974Z,1.88
2023-03-10T07:51:06.145Z,1.27
2023-03-10T07:53:32.933Z,2.08
2023-03-10T07:55:59.686Z,1.55
2023-03-10T07:58:26.394Z,2.50
2023-03-10T08:00:59.237Z,0.13
2023-03-10T08:05:53.043Z,0.15
2023-03-10T08:08:19.846Z,0.20
2023-03-10T08:10:46.655Z,0.55
2023-03-10T08:13:13.553Z,1.95
2023-03-10T08:15:40.477Z,0.20
2023-03-10T08:18:07.392Z,0.20
2023-03-10T08:20:35.500Z,0.47
2023-03-10T08:23:02.241Z,1.20
2023-03-10T08:25:28.962Z,2.58
2023-03-10T08:27:55.672Z,1.20
2023-03-10T08:30:22.812Z,1.45
2023-03-10T08:32:49.561Z,0.82
2023-03-10T08:35:16.261Z,0.20
2023-03-10T08:37:43.604Z,0.43
2023-03-10T08:40:13.089Z,0.45
2023-03-10T08:42:39.773Z,0.32
2023-03-10T08:45:08.719Z,1.13
2023-03-10T08:47:35.793Z,0.63
2023-03-10T08:50:02.624Z,0.20
2023-03-10T08:52:29.277Z,0.10
2023-03-10T08:54:58.194Z,1.42
2023-03-10T08:57:26.253Z,0.95
2023-03-10T08:59:53.143Z,0.40
2023-03-10T09:02:19.945Z,0.63
2023-03-10T09:04:46.746Z,0.57
2023-03-10T09:07:13.475Z,1.63
2023-03-10T09:09:40.229Z,0.25
2023-03-10T09:12:07.108Z,2.35
2023-03-10T09:14:33.835Z,2.38
2023-03-10T09:17:00.602Z,0.20
2023-03-10T09:19:27.521Z,0.70
2023-03-10T09:21:54.400Z,0.90
2023-03-10T09:24:21.233Z,0.20
2023-03-10T09:26:47.977Z,1.02
2023-03-10T09:29:14.718Z,0.55
2023-03-10T09:31:41.473Z,0.08
2023-03-10T09:34:08.260Z,0.30
2023-03-10T09:36:35.240Z,0.80
2023-03-10T09:39:02.033Z,0.10
2023-03-10T09:41:53.531Z,0.00
2023-03-10T09:44:41.845Z,1.10
2023-03-10T09:47:14.320Z,0.20
2023-03-10T09:50:18.415Z,1.73
2023-03-10T09:52:46.648Z,1.42
2023-03-10T09:55:32.075Z,0.10
2023-03-10T09:57:58.810Z,0.47
2023-03-10T10:00:37.420Z,0.40
2023-03-10T10:03:19.929Z,0.15
2023-03-10T10:05:47.971Z,1.65
2023-03-10T10:08:54.737Z,1.85
2023-03-10T10:11:25.179Z,0.65
2023-03-10T10:13:54.945Z,0.03
2023-03-10T10:16:34.486Z,0.68
2023-03-10T10:19:28.157Z,0.55
2023-03-10T10:21:57.752Z,1.08
2023-03-10T10:24:24.556Z,2.33
2023-03-10T10:26:51.272Z,0.10
2023-03-10T10:29:32.522Z,0.70
2023-03-10T10:32:03.555Z,0.75
2023-03-10T10:34:30.328Z,2.28
2023-03-10T10:36:57.048Z,0.47
2023-03-10T10:39:40.884Z,0.47
2023-03-10T10:42:20.601Z,0.45
2023-03-10T10:44:47.390Z,0.20
2023-03-10T10:47:29.116Z,0.30
2023-03-10T10:50:09.317Z,0.47
2023-03-10T10:52:36.061Z,0.10
2023-03-10T10:55:02.772Z,0.45
2023-03-10T10:57:34.395Z,0.85
2023-03-10T11:00:26.009Z,0.00
2023-03-10T11:02:53.095Z,0.10
2023-03-10T11:05:23.930Z,0.85
2023-03-10T11:07:51.375Z,0.68
2023-03-10T11:10:20.108Z,0.55
2023-03-10T11:13:07.080Z,0.30
2023-03-10T11:15:39.178Z,0.95
2023-03-10T11:18:16.939Z,0.00
2023-03-10T11:20:49.032Z,0.00
2023-03-10T11:23:26.115Z,0.50
2023-03-10T11:25:59.423Z,0.15
2023-03-10T11:28:40.634Z,1.17
2023-03-10T11:31:22.857Z,1.10
2023-03-10T11:34:14.494Z,0.22
2023-03-10T11:37:11.172Z,0.03
2023-03-10T11:40:03.822Z,0.00
2023-03-10T11:42:39.521Z,0.85
2023-03-10T11:45:18.053Z,0.10
2023-03-10T11:47:50.435Z,2.42
2023-03-10T11:50:30.386Z,0.10
2023-03-10T11:53:04.514Z,0.38
2023-03-10T11:55:31.363Z,1.08
2023-03-10T11:57:59.381Z,2.85
2023-03-10T12:00:38.364Z,1.02
2023-03-10T12:03:37.234Z,0.88
2023-03-10T12:06:04.052Z,0.63
2023-03-10T12:08:33.303Z,0.10
2023-03-10T12:11:04.751Z,1.20
2023-03-10T12:13:42.890Z,0.63
2023-03-10T12:16:10.035Z,1.25
2023-03-10T12:18:36.753Z,0.40
2023-03-10T12:21:12.148Z,0.80
2023-03-10T12:23:39.859Z,0.43
2023-03-10T12:26:06.588Z,0.40
2023-03-10T12:28:33.275Z,1.58
2023-03-10T12:31:12.369Z,0.57
2023-03-10T12:33:43.623Z,0.50
2023-03-10T12:36:10.407Z,1.67
2023-03-10T12:38:42.912Z,0.20
2023-03-10T12:41:10.089Z,1.38
2023-03-10T12:43:54.887Z,1.05
2023-03-10T12:46:44.339Z,0.20
2023-03-10T12:49:36.052Z,0.52
2023-03-10T12:52:20.652Z,1.52
2023-03-10T12:55:19.033Z,0.20
2023-03-10T12:57:54.748Z,0.05
2023-03-10T13:00:27.670Z,0.20
2023-03-10T13:05:26.223Z,0.20
2023-03-10T13:07:54.426Z,0.57
2023-03-10T13:10:23.253Z,0.52
2023-03-10T13:12:51.190Z,0.90
2023-03-10T13:15:26.543Z,1.15
2023-03-10T13:17:53.353Z,2.63
2023-03-10T13:20:20.274Z,0.65
2023-03-10T13:22:57.550Z,1.02
2023-03-10T13:25:24.404Z,0.95
2023-03-10T13:27:51.241Z,1.20
2023-03-10T13:30:22.492Z,1.17
2023-03-10T13:33:01.882Z,0.32
2023-03-10T13:35:35.975Z,0.28
2023-03-10T13:38:14.632Z,1.60
2023-03-10T13:40:46.447Z,1.33
2023-03-10T13:43:40.207Z,0.10
2023-03-10T13:46:23.677Z,0.13
2023-03-10T13:48:50.494Z,0.45
2023-03-10T13:51:32.091Z,0.50
2023-03-10T13:54:32.698Z,0.10
2023-03-10T13:57:26.538Z,0.00
2023-03-10T13:59:53.880Z,0.08
2023-03-10T14:02:31.252Z,0.10
2023-03-10T14:04:58.248Z,0.55
2023-03-10T14:07:29.508Z,0.45
2023-03-10T14:10:05.444Z,0.73
2023-03-10T14:12:39.940Z,0.93
2023-03-10T14:15:10.640Z,0.10
2023-03-10T14:17:37.332Z,0.28
2023-03-10T14:20:04.498Z,0.20
2023-03-10T14:22:38.528Z,1.65
2023-03-10T14:25:16.109Z,1.65
2023-03-10T14:27:52.514Z,1.10
2023-03-10T14:30:23.607Z,0.10
2023-03-10T14:32:50.409Z,2.83
2023-03-10T14:35:18.118Z,0.63
2023-03-10T14:37:44.836Z,0.30
2023-03-10T14:40:11.990Z,1.40
2023-03-10T14:42:39.113Z,0.60
2023-03-10T14:45:30.244Z,2.58
2023-03-10T14:47:57.911Z,0.75
2023-03-10T14:50:25.178Z,1.30
2023-03-10T14:52:51.908Z,1.20
2023-03-10T14:55:18.702Z,0.57
2023-03-10T14:57:46.310Z,0.50
2023-03-10T15:00:22.433Z,1.20
2023-03-10T15:02:49.156Z,1.55
2023-03-10T15:05:25.908Z,0.05
2023-03-10T15:07:54.352Z,0.35
2023-03-10T15:10:22.141Z,1.00
2023-03-10T15:12:50.004Z,0.75
2023-03-10T15:15:17.939Z,0.00
2023-03-10T15:17:44.878Z,0.10
2023-03-10T15:20:17.708Z,0.47
2023-03-10T15:25:11.457Z,1.45
2023-03-10T15:27:38.177Z,0.65
2023-03-10T15:30:05.808Z,0.10
2023-03-10T15:32:32.698Z,0.20
2023-03-10T15:34:59.389Z,1.23
2023-03-10T15:37:26.078Z,0.75
2023-03-10T15:39:52.828Z,1.00
2023-03-10T15:42:19.543Z,0.10
2023-03-10T15:44:48.515Z,1.58
2023-03-10T15:47:15.234Z,1.63
2023-03-10T15:49:41.915Z,0.30
2023-03-10T15:52:08.612Z,0.82
2023-03-10T15:54:35.328Z,0.40
2023-03-10T15:57:02.058Z,0.52
2023-03-10T15:59:28.748Z,0.17
2023-03-10T16:01:55.591Z,1.50
2023-03-10T16:04:22.413Z,1.95
2023-03-10T16:06:49.232Z,1.55
2023-03-10T16:09:16.192Z,5.72
2023-03-10T16:11:42.970Z,0.22
2023-03-10T16:14:09.657Z,0.30
2023-03-10T16:16:36.410Z,3.40
2023-03-10T16:19:03.175Z,0.55
2023-03-10T16:21:29.930Z,0.73
2023-03-10T16:23:56.896Z,1.42
2023-03-10T16:26:23.972Z,1.38
2023-03-10T16:28:52.119Z,0.35
2023-03-10T16:31:24.020Z,0.17
2023-03-10T16:33:50.948Z,2.13
2023-03-10T16:36:19.421Z,2.08
2023-03-10T16:38:48.413Z,1.17
2023-03-10T16:41:15.375Z,0.50
2023-03-10T16:43:42.141Z,1.13
2023-03-10T16:46:29.204Z,1.90
2023-03-10T16:48:56.250Z,0.30
2023-03-10T16:51:26.876Z,0.80
2023-03-10T16:53:55.036Z,0.25
2023-03-10T16:56:21.983Z,1.42
2023-03-10T16:58:48.712Z,1.40
2023-03-10T17:01:15.426Z,3.17
2023-03-10T17:03:42.309Z,0.75
2023-03-10T17:06:10.836Z,3.03
2023-03-10T17:08:38.436Z,3.00
2023-03-10T17:11:05.581Z,1.20
2023-03-10T17:13:32.610Z,0.75
2023-03-10T17:15:59.720Z,0.73
2023-03-10T17:18:26.436Z,1.52
2023-03-10T17:20:53.132Z,0.28
2023-03-10T17:23:19.953Z,1.38
2023-03-10T17:25:46.659Z,0.95
2023-03-10T17:28:13.387Z,1.08
2023-03-10T17:30:40.465Z,3.00
2023-03-10T17:33:07.198Z,0.75
2023-03-10T17:35:37.481Z,1.90
2023-03-10T17:38:04.198Z,0.30
2023-03-10T17:40:30.940Z,1.08
2023-03-10T17:42:59.883Z,0.88
2023-03-10T17:45:35.150Z,0.25
2023-03-10T17:48:01.981Z,0.95
2023-03-10T17:50:28.638Z,4.18
2023-03-10T17:52:55.346Z,0.30
2023-03-10T17:55:22.038Z,0.40
2023-03-10T17:57:48.747Z,0.45
2023-03-10T18:00:15.704Z,2.53
2023-03-10T18:02:42.537Z,1.15
2023-03-10T18:05:09.887Z,1.70
2023-03-10T18:07:36.605Z,1.45
2023-03-10T18:10:03.470Z,0.65
2023-03-10T18:12:30.208Z,2.03
2023-03-10T18:14:56.981Z,1.58
2023-03-10T18:17:23.830Z,1.10
2023-03-10T18:19:51.058Z,0.30
2023-03-10T18:22:17.784Z,0.50
2023-03-10T18:24:44.451Z,2.05
2023-03-10T18:27:11.399Z,1.80
2023-03-10T18:29:38.084Z,0.20
2023-03-10T18:32:04.965Z,0.30
2023-03-10T18:34:31.651Z,0.85
2023-03-10T18:36:58.354Z,1.83
2023-03-10T18:39:25.015Z,0.20
2023-03-10T18:41:54.185Z,1.55
2023-03-10T18:44:20.923Z,0.32
2023-03-10T18:46:47.762Z,1.08
2023-03-10T18:49:14.500Z,3.03
2023-03-10T18:51:41.219Z,1.20
2023-03-10T18:54:07.991Z,0.85
2023-03-10T18:56:34.761Z,0.45
2023-03-10T18:59:01.457Z,1.00
2023-03-10T19:01:28.244Z,0.60
2023-03-10T19:03:55.031Z,0.50
2023-03-10T19:06:21.771Z,0.40
2023-03-10T19:08:48.492Z,1.30
2023-03-10T19:11:15.296Z,0.43
2023-03-10T19:13:42.050Z,0.22
2023-03-10T19:16:09.417Z,1.17
2023-03-10T19:18:36.220Z,0.20
2023-03-10T19:21:03.155Z,2.72
2023-03-10T19:23:29.845Z,0.38
2023-03-10T19:25:56.672Z,1.13
2023-03-10T19:28:23.395Z,0.75
2023-03-10T19:30:50.143Z,1.38
2023-03-10T19:33:16.843Z,2.67
2023-03-10T19:35:43.572Z,1.65
2023-03-10T19:38:10.282Z,1.48
2023-03-10T19:40:37.110Z,1.10
2023-03-10T19:43:03.904Z,2.90
2023-03-10T19:45:30.581Z,0.60
2023-03-10T19:47:57.289Z,0.80
2023-03-10T19:50:24.082Z,0.60
2023-03-10T19:52:50.781Z,2.47
2023-03-10T19:55:19.595Z,0.50
2023-03-10T19:57:50.358Z,0.63
2023-03-10T20:00:19.121Z,1.20
2023-03-10T20:02:46.023Z,0.82
2023-03-10T20:05:16.030Z,1.25
2023-03-10T20:07:43.217Z,3.30
2023-03-10T20:10:10.502Z,1.73
2023-03-10T20:12:37.240Z,2.33
2023-03-10T20:15:04.424Z,2.25
2023-03-10T20:17:31.204Z,4.57
2023-03-10T20:19:57.904Z,5.22
2023-03-10T20:22:24.668Z,5.45
2023-03-10T20:24:51.317Z,6.45
2023-03-10T20:27:17.991Z,4.72
2023-03-10T20:29:44.676Z,4.90
2023-03-10T20:32:11.432Z,4.63
2023-03-10T20:34:38.144Z,2.95
2023-03-10T20:37:04.819Z,4.72
2023-03-10T20:39:31.505Z,1.55
2023-03-10T20:41:58.203Z,1.65
2023-03-10T20:44:24.903Z,6.03
2023-03-10T20:46:51.606Z,3.55
2023-03-10T20:49:18.287Z,3.15
2023-03-10T20:51:44.997Z,2.67
2023-03-10T20:54:11.704Z,2.13
2023-03-10T20:56:38.462Z,5.13
2023-03-10T20:59:05.141Z,3.53
2023-03-10T21:01:31.856Z,3.55
2023-03-10T21:03:59.030Z,3.45
2023-03-10T21:06:26.225Z,3.30
2023-03-10T21:08:52.930Z,6.80
2023-03-10T21:11:19.699Z,2.22
2023-03-10T21:13:46.400Z,2.58
2023-03-10T21:16:13.121Z,2.95
2023-03-10T21:18:39.884Z,3.65
2023-03-10T21:21:07.096Z,7.57
2023-03-10T21:23:37.405Z,2.30
2023-03-10T21:26:15.051Z,2.78
2023-03-10T21:28:41.966Z,2.65
2023-03-10T21:31:08.778Z,2.00
2023-03-10T21:33:35.561Z,3.58
2023-03-10T21:36:02.388Z,2.58
2023-03-10T21:38:29.117Z,1.83
2023-03-10T21:40:55.800Z,2.65
2023-03-10T21:43:22.490Z,2.72
2023-03-10T21:45:49.301Z,3.47
2023-03-10T21:48:16.043Z,3.83
2023-03-10T21:50:42.753Z,3.25
2023-03-10T21:53:13.062Z,4.00
2023-03-10T21:55:39.769Z,2.60
2023-03-10T21:58:06.437Z,4.82
2023-03-10T22:00:33.242Z,4.30
2023-03-10T22:02:59.921Z,2.67
2023-03-10T22:05:26.727Z,2.10
2023-03-10T22:07:53.445Z,4.93
2023-03-10T22:10:20.219Z,1.88
2023-03-10T22:12:46.988Z,5.10
2023-03-10T22:15:24.370Z,1.85
2023-03-10T22:17:51.226Z,2.05
2023-03-10T22:20:20.325Z,2.30
2023-03-10T22:22:47.441Z,3.88
2023-03-10T22:25:14.295Z,2.13
2023-03-10T22:27:41.212Z,2.65
2023-03-10T22:30:08.440Z,2.90
2023-03-10T22:32:35.137Z,3.08
2023-03-10T22:35:02.043Z,4.10
2023-03-10T22:37:28.738Z,2.10
2023-03-10T22:39:55.423Z,2.95
2023-03-10T22:42:22.104Z,3.80
2023-03-10T22:44:48.804Z,2.55
2023-03-10T22:47:16.492Z,1.73
2023-03-10T22:49:43.247Z,4.05
2023-03-10T22:52:09.940Z,4.32
2023-03-10T22:54:36.758Z,2.05
2023-03-10T22:57:03.519Z,3.08
2023-03-10T22:59:30.243Z,2.38
2023-03-10T23:01:57.008Z,2.30
2023-03-10T23:04:23.693Z,1.92
2023-03-10T23:06:50.445Z,2.90
2023-03-10T23:09:17.165Z,2.03
2023-03-10T23:11:43.886Z,2.30
2023-03-10T23:14:10.594Z,2.10
2023-03-10T23:16:37.320Z,1.50
2023-03-10T23:19:08.315Z,1.70
2023-03-10T23:21:35.447Z,2.53
2023-03-10T23:24:02.207Z,2.10
2023-03-10T23:26:29.280Z,2.20
2023-03-10T23:28:55.972Z,4.03
2023-03-10T23:31:22.723Z,4.95
2023-03-10T23:33:49.442Z,4.82
2023-03-10T23:36:16.134Z,3.58
2023-03-10T23:38:42.819Z,3.75
2023-03-10T23:41:09.570Z,1.83
2023-03-10T23:43:36.357Z,5.10
2023-03-10T23:46:04.939Z,2.17
2023-03-10T23:48:31.704Z,2.40
2023-03-10T23:50:58.680Z,1.63
2023-03-10T23:53:25.413Z,3.20
2023-03-10T23:55:52.129Z,2.75
2023-03-10T23:58:18.976Z,2.65
